Terminal Aerodrome Forecast
Issued by NWS Amarillo, TX

Current Version | Previous Version | Text Only | Print | Product List | Glossary Off
Versions: 1 2 3 4 5 6 7 8 9 10 11 12 13 14 15 16 17

000
FTUS44 KAMA 140400 AAB
TAFDHT
TAF AMD
KDHT 140418Z 1404/1424 VRB06KT P6SM VCTS BKN080CB
      TEMPO 1404/1408 VRB25G35KT 5SM TSRA BR OVC040CB
     FM140800 VRB05KT P6SM BKN100
     FM141600 03008KT P6SM BKN250=

USA.gov is the U.S. government's official web portal to all federal, state and local government web resources and services.